Search for airport 
image banner adimage banner adimage banner ad
image banner ad

KWMC - Winnemucca Muni

Located in Winnemucca, United States

ICAO - WMC, IATA - WMC

Data provided by Airmate  

General information

Coordinates: N40°53'48" W117°48'21"
Elevation is 4308 feet MSL.
Magnetic variation is 16° East
View others Airports in Nevada

Operational data

Special qualification required
Current time UTC:
Current local time:
Weather
METAR: KWMC 092256Z AUTO 32012G17KT 10SM BKN095 19/M06 A2999 RMK AO2 SLP144 T01891056
TAF: KWMC 091721Z 0918/1018 36009KT P6SM SCT250 FM092100 34012KT P6SM SCT250 FM100000 36013G21KT P6SM FEW100 SCT250 FM100600 02009KT P6SM FEW250
View NOTAMs / SUP AIP / TFR affecting this airport [VIEW]
Communications frequencies: [VIEW]

Runways:

RWY identifierQFULength (ft)Width (ft)SurfaceLDA (ft)
0240°480075ASPH
20220°480075ASPH
14160°7000100ASPH
32340°7000100ASPH

Airport contact information

Address: Winnemucca United States

Satellite view of KWMC